createdAt,value
2018-10-07T00:00:09.705Z,13.68
2018-10-07T00:04:50.298Z,15.38
2018-10-07T00:09:30.973Z,18.07
2018-10-07T00:14:10.804Z,11.73
2018-10-07T00:18:50.808Z,22.20
2018-10-07T00:23:30.919Z,14.40
2018-10-07T00:28:11.517Z,11.15
2018-10-07T00:32:52.247Z,14.60
2018-10-07T00:37:32.376Z,22.42
2018-10-07T00:42:12.545Z,16.23
2018-10-07T00:46:52.812Z,13.43
2018-10-07T00:51:32.756Z,13.20
2018-10-07T00:56:14.645Z,17.35
2018-10-07T01:00:54.866Z,16.35
2018-10-07T01:05:34.760Z,24.77
2018-10-07T01:10:14.778Z,19.73
2018-10-07T01:14:55.560Z,18.93
2018-10-07T01:19:36.361Z,14.70
2018-10-07T01:24:16.533Z,13.45
2018-10-07T01:28:56.394Z,19.17
2018-10-07T01:33:36.461Z,11.70
2018-10-07T01:38:16.526Z,10.83
2018-10-07T01:42:56.924Z,16.87
2018-10-07T01:47:36.561Z,10.63
2018-10-07T01:52:17.457Z,16.73
2018-10-07T01:56:57.206Z,19.23
2018-10-07T02:01:37.951Z,14.10
2018-10-07T02:06:17.929Z,28.70
2018-10-07T02:10:57.653Z,28.90
2018-10-07T02:15:37.396Z,29.50
2018-10-07T02:20:17.445Z,27.97
2018-10-07T02:24:57.416Z,19.17
2018-10-07T02:29:37.291Z,13.33
2018-10-07T02:34:17.704Z,55.63
2018-10-07T02:38:58.015Z,25.60
2018-10-07T02:43:37.989Z,18.60
2018-10-07T02:48:19.710Z,16.32
2018-10-07T02:53:00.305Z,14.73
2018-10-07T02:57:41.068Z,17.07
2018-10-07T03:02:21.969Z,15.80
2018-10-07T03:07:03.656Z,16.33
2018-10-07T03:11:43.700Z,21.50
2018-10-07T03:16:24.226Z,15.83
2018-10-07T03:21:04.999Z,21.80
2018-10-07T03:25:45.111Z,18.75
2018-10-07T03:30:25.552Z,18.83
2018-10-07T03:35:05.372Z,29.13
2018-10-07T03:39:45.210Z,40.83
2018-10-07T03:44:25.560Z,24.87
2018-10-07T03:49:05.665Z,19.17
2018-10-07T03:53:45.991Z,24.47
2018-10-07T03:58:25.933Z,20.77
2018-10-07T04:03:06.003Z,19.63
2018-10-07T04:07:46.457Z,21.77
2018-10-07T04:12:26.994Z,30.03
2018-10-07T04:17:07.328Z,23.67
2018-10-07T04:21:51.411Z,19.05
2018-10-07T04:26:31.605Z,18.47
2018-10-07T04:31:12.367Z,17.50
2018-10-07T04:35:52.120Z,16.53
2018-10-07T04:40:32.356Z,17.98
2018-10-07T04:45:12.338Z,19.30
2018-10-07T04:49:52.657Z,14.58
2018-10-07T04:54:32.880Z,19.87
2018-10-07T04:59:13.368Z,14.63
2018-10-07T05:03:53.551Z,18.57
2018-10-07T05:08:33.582Z,38.90
2018-10-07T05:13:17.897Z,28.42
2018-10-07T05:18:00.784Z,28.83
2018-10-07T05:22:42.160Z,24.25
2018-10-07T05:27:25.191Z,31.00
2018-10-07T05:32:07.552Z,26.25
2018-10-07T05:36:48.714Z,22.55
2018-10-07T05:41:29.240Z,18.20
2018-10-07T05:46:13.046Z,24.32
2018-10-07T05:50:54.497Z,23.65
2018-10-07T05:55:35.401Z,18.75
2018-10-07T06:00:16.325Z,22.50
2018-10-07T06:04:57.209Z,20.37
2018-10-07T06:09:37.824Z,48.75
2018-10-07T06:14:30.013Z,79.27
2018-10-07T06:19:10.604Z,26.37
2018-10-07T06:23:51.013Z,19.62
2018-10-07T06:28:31.064Z,17.82
2018-10-07T06:33:10.789Z,17.98
2018-10-07T06:37:51.108Z,17.07
2018-10-07T06:42:31.289Z,19.00
2018-10-07T06:47:10.997Z,23.95
2018-10-07T06:51:50.827Z,21.80
2018-10-07T06:56:30.896Z,20.35
2018-10-07T07:01:11.448Z,19.90
2018-10-07T07:05:51.436Z,27.82
2018-10-07T07:10:31.697Z,25.77
2018-10-07T07:15:12.372Z,26.68
2018-10-07T07:19:52.735Z,25.88
2018-10-07T07:24:32.741Z,21.25
2018-10-07T07:29:12.923Z,23.90
2018-10-07T07:33:53.580Z,22.73
2018-10-07T07:38:33.419Z,25.55
2018-10-07T07:43:14.133Z,20.62
2018-10-07T07:47:54.913Z,23.38
2018-10-07T07:52:35.086Z,17.17
2018-10-07T07:57:14.880Z,20.10
2018-10-07T08:01:54.674Z,20.02
2018-10-07T08:06:34.834Z,68.33
2018-10-07T08:11:14.738Z,20.17
2018-10-07T08:15:54.429Z,18.67
2018-10-07T08:20:34.379Z,13.90
2018-10-07T08:25:14.162Z,14.07
2018-10-07T08:29:55.037Z,14.05
2018-10-07T08:34:35.352Z,15.20
2018-10-07T08:39:15.189Z,12.95
2018-10-07T08:43:55.605Z,16.00
2018-10-07T08:48:35.992Z,14.23
2018-10-07T08:53:17.097Z,13.62
2018-10-07T08:57:57.618Z,14.15
2018-10-07T09:02:37.509Z,12.73
2018-10-07T09:07:17.498Z,11.63
2018-10-07T09:12:04.666Z,11.68
2018-10-07T09:16:51.100Z,11.90
2018-10-07T09:21:31.993Z,12.25
2018-10-07T09:26:12.436Z,13.48
2018-10-07T09:30:52.641Z,12.95
2018-10-07T09:35:32.652Z,12.07
2018-10-07T09:40:12.920Z,10.82
2018-10-07T09:44:52.975Z,11.48
2018-10-07T09:49:33.048Z,10.08
2018-10-07T09:54:13.275Z,11.05
2018-10-07T09:58:53.374Z,12.37
2018-10-07T10:03:34.305Z,10.65
2018-10-07T10:08:14.225Z,11.30
2018-10-07T10:12:56.603Z,9.55
2018-10-07T10:17:40.109Z,10.70
2018-10-07T10:22:28.849Z,10.23
2018-10-07T10:27:31.928Z,10.38
2018-10-07T10:32:48.298Z,11.10
2018-10-07T10:42:43.554Z,10.80
2018-10-07T10:47:33.523Z,10.65
2018-10-07T10:52:24.860Z,11.38
2018-10-07T10:57:09.533Z,10.68
2018-10-07T11:02:01.705Z,11.12
2018-10-07T11:08:56.020Z,11.05
2018-10-07T11:13:43.232Z,13.08
2018-10-07T11:18:34.382Z,12.05
2018-10-07T11:23:33.083Z,12.37
2018-10-07T11:32:53.376Z,12.50
2018-10-07T11:38:52.643Z,14.90
2018-10-07T11:44:40.197Z,16.12
2018-10-07T11:49:24.028Z,14.90
2018-10-07T11:54:09.224Z,16.27
2018-10-07T11:58:49.148Z,16.35
2018-10-07T12:03:29.065Z,16.45
2018-10-07T12:08:09.114Z,17.92
2018-10-07T12:12:49.007Z,17.60
2018-10-07T12:17:28.883Z,17.00
2018-10-07T12:22:09.104Z,16.90
2018-10-07T12:26:49.557Z,16.25
2018-10-07T12:31:30.163Z,14.80
2018-10-07T12:36:10.045Z,14.35
2018-10-07T12:40:49.854Z,13.65
2018-10-07T12:45:29.676Z,14.07
2018-10-07T12:50:09.489Z,15.25
2018-10-07T12:54:49.480Z,13.22
2018-10-07T12:59:29.308Z,13.38
2018-10-07T13:04:09.245Z,16.32
2018-10-07T13:08:49.201Z,17.20
2018-10-07T13:13:29.093Z,15.23
2018-10-07T13:18:08.974Z,17.73
2018-10-07T13:22:48.990Z,14.60
2018-10-07T13:27:28.930Z,13.22
2018-10-07T13:32:09.342Z,13.05
2018-10-07T13:36:49.243Z,13.15
2018-10-07T13:41:29.017Z,20.57
2018-10-07T13:46:09.389Z,16.37
2018-10-07T13:50:49.192Z,15.70
2018-10-07T13:55:29.425Z,15.35
2018-10-07T14:00:09.117Z,17.37
2018-10-07T14:04:49.045Z,18.27
2018-10-07T14:09:29.001Z,23.57
2018-10-07T14:14:08.775Z,23.32
2018-10-07T14:18:48.656Z,23.18
2018-10-07T14:23:28.417Z,25.27
2018-10-07T14:28:08.472Z,21.87
2018-10-07T14:32:48.925Z,23.45
2018-10-07T14:37:28.884Z,22.80
2018-10-07T14:42:08.648Z,19.12
2018-10-07T14:46:58.001Z,24.55
2018-10-07T14:51:57.983Z,25.50
2018-10-07T14:56:37.884Z,26.00
2018-10-07T15:01:17.948Z,26.57
2018-10-07T15:05:59.304Z,26.60
2018-10-07T15:10:39.733Z,26.33
2018-10-07T15:15:20.290Z,29.75
2018-10-07T15:20:00.485Z,30.02
2018-10-07T15:24:40.603Z,28.45
2018-10-07T15:29:20.475Z,27.98
2018-10-07T15:34:00.288Z,28.85
2018-10-07T15:38:40.389Z,32.50
2018-10-07T15:43:20.248Z,27.77
2018-10-07T15:48:00.094Z,30.57
2018-10-07T15:52:40.127Z,30.25
2018-10-07T15:57:20.206Z,28.05
2018-10-07T16:01:59.952Z,31.95
2018-10-07T16:06:39.832Z,29.60
2018-10-07T16:11:19.696Z,29.12
2018-10-07T16:16:00.221Z,32.23
2018-10-07T16:20:40.131Z,33.45
2018-10-07T16:25:19.976Z,30.90
2018-10-07T16:30:01.092Z,34.73
2018-10-07T16:34:40.864Z,30.60
2018-10-07T16:39:20.938Z,25.68
2018-10-07T16:44:01.583Z,30.30
2018-10-07T16:48:41.527Z,25.57
2018-10-07T16:53:21.722Z,23.45
2018-10-07T16:58:01.578Z,24.92
2018-10-07T17:02:42.668Z,24.05
2018-10-07T17:07:23.735Z,26.80
2018-10-07T17:12:04.033Z,27.98
2018-10-07T17:16:45.709Z,25.68
2018-10-07T17:21:25.582Z,24.47
2018-10-07T17:26:05.393Z,26.20
2018-10-07T17:30:45.240Z,25.80
2018-10-07T17:35:24.998Z,25.85
2018-10-07T17:40:04.985Z,28.20
2018-10-07T17:44:44.636Z,29.42
2018-10-07T17:49:24.475Z,27.87
2018-10-07T17:54:04.973Z,35.03
2018-10-07T17:58:44.900Z,30.77
2018-10-07T18:03:24.821Z,28.90
2018-10-07T18:08:04.660Z,32.08
2018-10-07T18:12:44.388Z,34.40
2018-10-07T18:17:24.009Z,38.08
2018-10-07T18:22:04.896Z,31.87
2018-10-07T18:26:44.774Z,36.65
2018-10-07T18:31:24.891Z,34.27
2018-10-07T18:36:05.468Z,34.80
2018-10-07T18:40:45.922Z,30.30
2018-10-07T18:45:26.419Z,41.20
2018-10-07T18:50:06.662Z,38.58
2018-10-07T18:54:47.098Z,39.75
2018-10-07T18:59:27.429Z,39.35
2018-10-07T19:04:08.033Z,38.88
2018-10-07T19:08:49.052Z,37.30
2018-10-07T19:13:29.341Z,45.52
2018-10-07T19:18:09.572Z,43.73
2018-10-07T19:22:49.860Z,41.10
2018-10-07T19:27:30.185Z,38.20
2018-10-07T19:32:10.586Z,39.15
2018-10-07T19:36:51.262Z,40.03
2018-10-07T19:41:31.523Z,59.75
2018-10-07T19:46:12.091Z,63.58
2018-10-07T19:50:52.600Z,98.95
2018-10-07T19:55:33.400Z,72.80
2018-10-07T20:00:13.785Z,141.00
2018-10-07T20:04:53.728Z,97.12
2018-10-07T20:09:33.741Z,42.03
2018-10-07T20:14:13.671Z,30.70
2018-10-07T20:18:54.009Z,34.43
2018-10-07T20:23:34.160Z,33.98
2018-10-07T20:28:15.178Z,36.93
2018-10-07T20:32:55.328Z,32.98
2018-10-07T20:37:35.380Z,33.75
2018-10-07T20:42:15.084Z,34.18
2018-10-07T20:46:55.860Z,39.98
2018-10-07T20:51:35.936Z,36.65
2018-10-07T20:56:16.359Z,56.77
2018-10-07T21:00:56.212Z,49.63
2018-10-07T21:05:36.257Z,65.87
2018-10-07T21:10:16.204Z,93.78
2018-10-07T21:14:57.961Z,104.45
2018-10-07T21:19:39.112Z,75.20
2018-10-07T21:24:19.780Z,114.65
2018-10-07T21:29:00.538Z,65.90
2018-10-07T21:33:40.652Z,39.03
2018-10-07T21:38:20.917Z,34.55
2018-10-07T21:43:01.380Z,41.80
2018-10-07T21:47:41.417Z,30.25
2018-10-07T21:52:21.855Z,28.02
2018-10-07T21:57:01.618Z,23.80
2018-10-07T22:01:42.000Z,25.27
2018-10-07T22:06:22.428Z,25.70
2018-10-07T22:11:04.101Z,26.57
2018-10-07T22:15:43.998Z,25.80
2018-10-07T22:20:24.575Z,24.77
2018-10-07T22:25:05.636Z,25.30
2018-10-07T22:29:46.154Z,26.87
2018-10-07T22:34:26.089Z,25.23
2018-10-07T22:39:07.824Z,23.52
2018-10-07T22:43:47.899Z,25.37
2018-10-07T22:48:27.967Z,60.95
2018-10-07T22:53:07.967Z,76.25
2018-10-07T22:57:47.677Z,64.40
2018-10-07T23:02:27.741Z,112.85
2018-10-07T23:07:08.693Z,55.63
2018-10-07T23:11:49.612Z,58.55
2018-10-07T23:16:30.256Z,26.10
2018-10-07T23:21:10.028Z,61.42
2018-10-07T23:25:50.638Z,31.33
2018-10-07T23:30:30.701Z,69.37
2018-10-07T23:35:11.279Z,65.75
2018-10-07T23:39:51.232Z,42.75
2018-10-07T23:44:31.735Z,43.05
2018-10-07T23:49:12.096Z,32.30
2018-10-07T23:53:52.908Z,35.53
2018-10-07T23:58:32.757Z,26.60
